sensor_id;sensor_type;location;lat;lon;timestamp;P1;durP1;ratioP1;P2;durP2;ratioP2
48751;SDS011;34544;48.836;9.174;2022-07-29T00:02:25;6.43;;;4.78;;
48751;SDS011;34544;48.836;9.174;2022-07-29T00:04:51;6.13;;;4.32;;
48751;SDS011;34544;48.836;9.174;2022-07-29T00:07:17;5.03;;;4.40;;
48751;SDS011;34544;48.836;9.174;2022-07-29T00:09:43;5.10;;;4.22;;
48751;SDS011;34544;48.836;9.174;2022-07-29T00:12:08;6.72;;;4.63;;
48751;SDS011;34544;48.836;9.174;2022-07-29T00:14:34;6.70;;;3.85;;
48751;SDS011;34544;48.836;9.174;2022-07-29T00:17:00;5.15;;;4.65;;
48751;SDS011;34544;48.836;9.174;2022-07-29T00:19:25;7.20;;;5.03;;
48751;SDS011;34544;48.836;9.174;2022-07-29T00:21:51;6.15;;;4.82;;
48751;SDS011;34544;48.836;9.174;2022-07-29T00:24:17;7.88;;;4.85;;
48751;SDS011;34544;48.836;9.174;2022-07-29T00:26:42;8.07;;;5.80;;
48751;SDS011;34544;48.836;9.174;2022-07-29T00:29:08;7.18;;;5.70;;
48751;SDS011;34544;48.836;9.174;2022-07-29T00:31:34;9.13;;;6.32;;
48751;SDS011;34544;48.836;9.174;2022-07-29T00:33:59;8.20;;;6.40;;
48751;SDS011;34544;48.836;9.174;2022-07-29T00:36:25;7.47;;;5.75;;
48751;SDS011;34544;48.836;9.174;2022-07-29T00:38:51;7.68;;;5.78;;
48751;SDS011;34544;48.836;9.174;2022-07-29T00:41:17;6.90;;;6.20;;
48751;SDS011;34544;48.836;9.174;2022-07-29T00:43:43;7.43;;;5.97;;
48751;SDS011;34544;48.836;9.174;2022-07-29T00:46:09;7.72;;;5.90;;
48751;SDS011;34544;48.836;9.174;2022-07-29T00:48:36;9.95;;;6.38;;
48751;SDS011;34544;48.836;9.174;2022-07-29T00:51:02;9.27;;;6.80;;
48751;SDS011;34544;48.836;9.174;2022-07-29T00:53:29;7.63;;;6.20;;
48751;SDS011;34544;48.836;9.174;2022-07-29T00:55:55;7.97;;;5.30;;
48751;SDS011;34544;48.836;9.174;2022-07-29T00:58:22;10.73;;;6.05;;
48751;SDS011;34544;48.836;9.174;2022-07-29T01:00:48;6.45;;;5.45;;
48751;SDS011;34544;48.836;9.174;2022-07-29T01:03:14;6.72;;;4.93;;
48751;SDS011;34544;48.836;9.174;2022-07-29T01:05:40;5.30;;;4.90;;
48751;SDS011;34544;48.836;9.174;2022-07-29T01:08:08;7.82;;;5.93;;
48751;SDS011;34544;48.836;9.174;2022-07-29T01:10:36;5.47;;;4.82;;
48751;SDS011;34544;48.836;9.174;2022-07-29T01:13:03;8.57;;;5.43;;
48751;SDS011;34544;48.836;9.174;2022-07-29T01:15:29;7.43;;;5.30;;
48751;SDS011;34544;48.836;9.174;2022-07-29T01:18:01;7.18;;;5.32;;
48751;SDS011;34544;48.836;9.174;2022-07-29T01:23:22;5.65;;;4.78;;
48751;SDS011;34544;48.836;9.174;2022-07-29T01:29:30;4.53;;;4.13;;
48751;SDS011;34544;48.836;9.174;2022-07-29T01:34:46;5.47;;;4.53;;
48751;SDS011;34544;48.836;9.174;2022-07-29T01:37:18;8.55;;;4.97;;
48751;SDS011;34544;48.836;9.174;2022-07-29T01:39:54;4.90;;;4.43;;
48751;SDS011;34544;48.836;9.174;2022-07-29T01:50:56;4.28;;;3.88;;
48751;SDS011;34544;48.836;9.174;2022-07-29T01:55:58;10.50;;;6.57;;
48751;SDS011;34544;48.836;9.174;2022-07-29T01:58:25;7.07;;;5.13;;
48751;SDS011;34544;48.836;9.174;2022-07-29T02:00:54;6.00;;;5.35;;
48751;SDS011;34544;48.836;9.174;2022-07-29T02:03:22;7.88;;;5.80;;
48751;SDS011;34544;48.836;9.174;2022-07-29T02:05:48;7.72;;;5.13;;
48751;SDS011;34544;48.836;9.174;2022-07-29T02:08:15;10.02;;;5.82;;
48751;SDS011;34544;48.836;9.174;2022-07-29T02:10:43;4.88;;;4.47;;
48751;SDS011;34544;48.836;9.174;2022-07-29T02:13:11;6.22;;;4.43;;
48751;SDS011;34544;48.836;9.174;2022-07-29T02:15:38;4.78;;;4.38;;
48751;SDS011;34544;48.836;9.174;2022-07-29T02:18:08;6.68;;;3.95;;
48751;SDS011;34544;48.836;9.174;2022-07-29T02:20:38;5.38;;;4.10;;
48751;SDS011;34544;48.836;9.174;2022-07-29T02:23:05;5.78;;;4.63;;
48751;SDS011;34544;48.836;9.174;2022-07-29T02:25:34;8.07;;;5.03;;
48751;SDS011;34544;48.836;9.174;2022-07-29T02:28:00;5.85;;;4.95;;
48751;SDS011;34544;48.836;9.174;2022-07-29T02:30:27;7.15;;;4.78;;
48751;SDS011;34544;48.836;9.174;2022-07-29T02:32:54;5.38;;;4.88;;
48751;SDS011;34544;48.836;9.174;2022-07-29T02:35:20;6.68;;;5.45;;
48751;SDS011;34544;48.836;9.174;2022-07-29T02:37:47;7.28;;;6.50;;
48751;SDS011;34544;48.836;9.174;2022-07-29T02:40:34;6.20;;;5.53;;
48751;SDS011;34544;48.836;9.174;2022-07-29T02:43:04;7.25;;;5.38;;
48751;SDS011;34544;48.836;9.174;2022-07-29T02:45:32;5.00;;;4.43;;
48751;SDS011;34544;48.836;9.174;2022-07-29T02:47:59;5.35;;;4.78;;
48751;SDS011;34544;48.836;9.174;2022-07-29T02:50:32;6.70;;;5.40;;
48751;SDS011;34544;48.836;9.174;2022-07-29T02:53:03;9.90;;;5.43;;
48751;SDS011;34544;48.836;9.174;2022-07-29T02:55:46;7.10;;;5.80;;
48751;SDS011;34544;48.836;9.174;2022-07-29T02:58:33;6.38;;;5.78;;
48751;SDS011;34544;48.836;9.174;2022-07-29T03:01:03;9.60;;;6.43;;
48751;SDS011;34544;48.836;9.174;2022-07-29T03:03:36;6.05;;;5.40;;
48751;SDS011;34544;48.836;9.174;2022-07-29T03:06:03;7.05;;;6.38;;
48751;SDS011;34544;48.836;9.174;2022-07-29T03:08:30;8.00;;;7.20;;
48751;SDS011;34544;48.836;9.174;2022-07-29T03:10:57;8.95;;;7.00;;
48751;SDS011;34544;48.836;9.174;2022-07-29T03:13:25;8.32;;;7.22;;
48751;SDS011;34544;48.836;9.174;2022-07-29T03:15:52;11.05;;;7.25;;
48751;SDS011;34544;48.836;9.174;2022-07-29T03:18:20;8.60;;;7.68;;
48751;SDS011;34544;48.836;9.174;2022-07-29T03:20:46;8.10;;;6.75;;
48751;SDS011;34544;48.836;9.174;2022-07-29T03:23:11;8.20;;;6.18;;
48751;SDS011;34544;48.836;9.174;2022-07-29T03:25:43;7.03;;;6.38;;
48751;SDS011;34544;48.836;9.174;2022-07-29T03:28:08;7.97;;;6.60;;
48751;SDS011;34544;48.836;9.174;2022-07-29T03:30:34;9.38;;;6.60;;
48751;SDS011;34544;48.836;9.174;2022-07-29T03:33:00;11.15;;;6.93;;
48751;SDS011;34544;48.836;9.174;2022-07-29T03:35:25;11.93;;;6.75;;
48751;SDS011;34544;48.836;9.174;2022-07-29T03:37:51;8.50;;;7.65;;
48751;SDS011;34544;48.836;9.174;2022-07-29T03:40:19;10.15;;;6.80;;
48751;SDS011;34544;48.836;9.174;2022-07-29T03:42:47;7.07;;;6.45;;
48751;SDS011;34544;48.836;9.174;2022-07-29T03:45:16;8.57;;;7.13;;
48751;SDS011;34544;48.836;9.174;2022-07-29T03:47:57;7.50;;;6.80;;
48751;SDS011;34544;48.836;9.174;2022-07-29T03:50:26;8.38;;;6.80;;
48751;SDS011;34544;48.836;9.174;2022-07-29T03:52:54;8.15;;;7.20;;
48751;SDS011;34544;48.836;9.174;2022-07-29T03:55:19;9.02;;;7.15;;
48751;SDS011;34544;48.836;9.174;2022-07-29T03:57:45;8.05;;;7.00;;
48751;SDS011;34544;48.836;9.174;2022-07-29T04:00:13;7.30;;;6.57;;
48751;SDS011;34544;48.836;9.174;2022-07-29T04:02:40;11.43;;;7.40;;
48751;SDS011;34544;48.836;9.174;2022-07-29T04:05:12;8.40;;;6.68;;
48751;SDS011;34544;48.836;9.174;2022-07-29T04:07:40;7.80;;;5.65;;
48751;SDS011;34544;48.836;9.174;2022-07-29T04:10:08;8.02;;;6.38;;
48751;SDS011;34544;48.836;9.174;2022-07-29T04:12:34;7.68;;;6.95;;
48751;SDS011;34544;48.836;9.174;2022-07-29T04:15:00;8.43;;;7.50;;
48751;SDS011;34544;48.836;9.174;2022-07-29T04:17:27;8.20;;;7.40;;
48751;SDS011;34544;48.836;9.174;2022-07-29T04:19:53;7.13;;;6.47;;
48751;SDS011;34544;48.836;9.174;2022-07-29T04:22:18;8.02;;;6.65;;
48751;SDS011;34544;48.836;9.174;2022-07-29T04:24:44;8.35;;;7.30;;
48751;SDS011;34544;48.836;9.174;2022-07-29T04:27:10;11.45;;;7.55;;
48751;SDS011;34544;48.836;9.174;2022-07-29T04:29:35;8.10;;;6.50;;
48751;SDS011;34544;48.836;9.174;2022-07-29T04:32:01;8.43;;;7.00;;
48751;SDS011;34544;48.836;9.174;2022-07-29T04:34:26;7.85;;;6.70;;
48751;SDS011;34544;48.836;9.174;2022-07-29T04:36:52;10.50;;;6.95;;
48751;SDS011;34544;48.836;9.174;2022-07-29T04:39:18;11.80;;;7.63;;
48751;SDS011;34544;48.836;9.174;2022-07-29T04:41:43;8.10;;;6.70;;
48751;SDS011;34544;48.836;9.174;2022-07-29T04:44:09;7.85;;;7.05;;
48751;SDS011;34544;48.836;9.174;2022-07-29T04:46:35;8.80;;;6.07;;
48751;SDS011;34544;48.836;9.174;2022-07-29T04:49:01;8.68;;;7.10;;
48751;SDS011;34544;48.836;9.174;2022-07-29T04:51:27;8.35;;;6.40;;
48751;SDS011;34544;48.836;9.174;2022-07-29T04:53:53;7.80;;;6.80;;
48751;SDS011;34544;48.836;9.174;2022-07-29T04:56:19;7.82;;;6.90;;
48751;SDS011;34544;48.836;9.174;2022-07-29T04:58:44;7.20;;;6.50;;
48751;SDS011;34544;48.836;9.174;2022-07-29T05:01:10;10.90;;;7.47;;
48751;SDS011;34544;48.836;9.174;2022-07-29T05:03:36;7.57;;;6.97;;
48751;SDS011;34544;48.836;9.174;2022-07-29T05:06:02;7.20;;;6.50;;
48751;SDS011;34544;48.836;9.174;2022-07-29T05:08:27;7.40;;;6.63;;
48751;SDS011;34544;48.836;9.174;2022-07-29T05:10:53;6.93;;;6.32;;
48751;SDS011;34544;48.836;9.174;2022-07-29T05:13:19;7.18;;;6.43;;
48751;SDS011;34544;48.836;9.174;2022-07-29T05:15:44;7.13;;;5.95;;
48751;SDS011;34544;48.836;9.174;2022-07-29T05:18:10;7.95;;;7.15;;
48751;SDS011;34544;48.836;9.174;2022-07-29T05:20:36;9.05;;;6.47;;
48751;SDS011;34544;48.836;9.174;2022-07-29T05:23:02;7.05;;;6.43;;
48751;SDS011;34544;48.836;9.174;2022-07-29T05:25:28;8.85;;;6.63;;
48751;SDS011;34544;48.836;9.174;2022-07-29T05:27:54;7.65;;;6.45;;
48751;SDS011;34544;48.836;9.174;2022-07-29T05:30:20;6.72;;;6.10;;
48751;SDS011;34544;48.836;9.174;2022-07-29T05:32:47;8.50;;;5.85;;
48751;SDS011;34544;48.836;9.174;2022-07-29T05:35:13;6.50;;;5.28;;
48751;SDS011;34544;48.836;9.174;2022-07-29T05:37:39;8.10;;;5.18;;
48751;SDS011;34544;48.836;9.174;2022-07-29T05:40:05;5.85;;;4.85;;
48751;SDS011;34544;48.836;9.174;2022-07-29T05:42:31;6.70;;;4.45;;
48751;SDS011;34544;48.836;9.174;2022-07-29T05:44:57;4.22;;;3.83;;
48751;SDS011;34544;48.836;9.174;2022-07-29T05:47:23;3.83;;;3.00;;
48751;SDS011;34544;48.836;9.174;2022-07-29T05:49:49;5.00;;;2.67;;
48751;SDS011;34544;48.836;9.174;2022-07-29T05:52:15;3.17;;;2.88;;
48751;SDS011;34544;48.836;9.174;2022-07-29T05:54:41;3.53;;;2.10;;
48751;SDS011;34544;48.836;9.174;2022-07-29T05:57:07;2.55;;;2.05;;
48751;SDS011;34544;48.836;9.174;2022-07-29T05:59:36;2.80;;;2.47;;
48751;SDS011;34544;48.836;9.174;2022-07-29T06:02:03;4.57;;;2.42;;
48751;SDS011;34544;48.836;9.174;2022-07-29T06:04:30;3.33;;;2.67;;
48751;SDS011;34544;48.836;9.174;2022-07-29T06:06:56;2.65;;;2.40;;
48751;SDS011;34544;48.836;9.174;2022-07-29T06:09:22;4.43;;;3.28;;
48751;SDS011;34544;48.836;9.174;2022-07-29T06:11:48;5.60;;;2.85;;
48751;SDS011;34544;48.836;9.174;2022-07-29T06:14:13;3.65;;;3.05;;
48751;SDS011;34544;48.836;9.174;2022-07-29T06:16:39;4.50;;;3.10;;
48751;SDS011;34544;48.836;9.174;2022-07-29T06:19:05;3.42;;;2.80;;
48751;SDS011;34544;48.836;9.174;2022-07-29T06:21:31;3.38;;;2.65;;
48751;SDS011;34544;48.836;9.174;2022-07-29T06:23:56;4.75;;;2.47;;
48751;SDS011;34544;48.836;9.174;2022-07-29T06:26:22;2.67;;;2.42;;
48751;SDS011;34544;48.836;9.174;2022-07-29T06:28:48;2.92;;;2.30;;
48751;SDS011;34544;48.836;9.174;2022-07-29T06:31:14;4.90;;;2.58;;
48751;SDS011;34544;48.836;9.174;2022-07-29T06:33:39;4.10;;;2.25;;
48751;SDS011;34544;48.836;9.174;2022-07-29T06:36:05;3.60;;;2.88;;
48751;SDS011;34544;48.836;9.174;2022-07-29T06:38:32;3.83;;;2.30;;
48751;SDS011;34544;48.836;9.174;2022-07-29T06:40:58;4.47;;;2.25;;
48751;SDS011;34544;48.836;9.174;2022-07-29T06:43:28;2.65;;;2.28;;
48751;SDS011;34544;48.836;9.174;2022-07-29T06:45:57;4.25;;;2.47;;
48751;SDS011;34544;48.836;9.174;2022-07-29T06:48:23;3.20;;;2.40;;
48751;SDS011;34544;48.836;9.174;2022-07-29T06:50:49;5.13;;;2.35;;
48751;SDS011;34544;48.836;9.174;2022-07-29T06:53:15;3.35;;;2.03;;
48751;SDS011;34544;48.836;9.174;2022-07-29T06:55:40;2.90;;;2.42;;
48751;SDS011;34544;48.836;9.174;2022-07-29T06:58:07;3.20;;;2.35;;
48751;SDS011;34544;48.836;9.174;2022-07-29T07:00:34;5.03;;;3.33;;
48751;SDS011;34544;48.836;9.174;2022-07-29T07:03:00;8.50;;;3.08;;
48751;SDS011;34544;48.836;9.174;2022-07-29T07:05:26;5.68;;;2.58;;
48751;SDS011;34544;48.836;9.174;2022-07-29T07:07:51;3.67;;;2.78;;
48751;SDS011;34544;48.836;9.174;2022-07-29T07:10:17;3.45;;;2.47;;
48751;SDS011;34544;48.836;9.174;2022-07-29T07:12:43;4.50;;;2.38;;
48751;SDS011;34544;48.836;9.174;2022-07-29T07:15:08;4.30;;;2.40;;
48751;SDS011;34544;48.836;9.174;2022-07-29T07:17:34;3.25;;;2.63;;
48751;SDS011;34544;48.836;9.174;2022-07-29T07:20:00;2.75;;;2.25;;
48751;SDS011;34544;48.836;9.174;2022-07-29T07:22:26;5.53;;;2.88;;
48751;SDS011;34544;48.836;9.174;2022-07-29T07:24:51;4.40;;;2.15;;
48751;SDS011;34544;48.836;9.174;2022-07-29T07:27:17;3.35;;;2.80;;
48751;SDS011;34544;48.836;9.174;2022-07-29T07:29:43;4.60;;;2.72;;
48751;SDS011;34544;48.836;9.174;2022-07-29T07:32:08;2.80;;;2.55;;
48751;SDS011;34544;48.836;9.174;2022-07-29T07:34:34;5.32;;;2.38;;
48751;SDS011;34544;48.836;9.174;2022-07-29T07:37:00;4.78;;;2.35;;
48751;SDS011;34544;48.836;9.174;2022-07-29T07:39:25;4.90;;;2.70;;
48751;SDS011;34544;48.836;9.174;2022-07-29T07:41:51;4.15;;;2.72;;
48751;SDS011;34544;48.836;9.174;2022-07-29T07:44:17;2.55;;;2.35;;
48751;SDS011;34544;48.836;9.174;2022-07-29T07:46:43;7.63;;;2.72;;
48751;SDS011;34544;48.836;9.174;2022-07-29T07:49:10;4.78;;;2.60;;
48751;SDS011;34544;48.836;9.174;2022-07-29T07:51:35;2.88;;;2.38;;
48751;SDS011;34544;48.836;9.174;2022-07-29T07:54:01;4.55;;;2.30;;
48751;SDS011;34544;48.836;9.174;2022-07-29T07:56:27;4.25;;;2.38;;
48751;SDS011;34544;48.836;9.174;2022-07-29T07:58:53;3.40;;;2.50;;
48751;SDS011;34544;48.836;9.174;2022-07-29T08:01:18;3.30;;;2.10;;
48751;SDS011;34544;48.836;9.174;2022-07-29T08:03:47;4.40;;;2.78;;
48751;SDS011;34544;48.836;9.174;2022-07-29T08:06:14;2.90;;;2.60;;
48751;SDS011;34544;48.836;9.174;2022-07-29T08:08:40;7.72;;;3.05;;
48751;SDS011;34544;48.836;9.174;2022-07-29T08:11:06;3.60;;;2.72;;
48751;SDS011;34544;48.836;9.174;2022-07-29T08:13:32;4.45;;;2.90;;
48751;SDS011;34544;48.836;9.174;2022-07-29T08:15:57;3.33;;;2.53;;
48751;SDS011;34544;48.836;9.174;2022-07-29T08:18:28;3.88;;;2.53;;
48751;SDS011;34544;48.836;9.174;2022-07-29T08:20:55;3.55;;;2.63;;
48751;SDS011;34544;48.836;9.174;2022-07-29T08:23:21;2.63;;;2.42;;
48751;SDS011;34544;48.836;9.174;2022-07-29T08:25:48;4.55;;;3.08;;
48751;SDS011;34544;48.836;9.174;2022-07-29T08:28:14;3.92;;;2.80;;
48751;SDS011;34544;48.836;9.174;2022-07-29T08:30:40;4.03;;;2.60;;
48751;SDS011;34544;48.836;9.174;2022-07-29T08:33:06;3.17;;;2.50;;
48751;SDS011;34544;48.836;9.174;2022-07-29T08:35:32;4.53;;;2.38;;
48751;SDS011;34544;48.836;9.174;2022-07-29T08:37:57;4.18;;;2.58;;
48751;SDS011;34544;48.836;9.174;2022-07-29T08:40:23;6.85;;;2.55;;
48751;SDS011;34544;48.836;9.174;2022-07-29T08:42:49;3.53;;;2.63;;
48751;SDS011;34544;48.836;9.174;2022-07-29T08:45:16;3.28;;;2.30;;
48751;SDS011;34544;48.836;9.174;2022-07-29T08:47:43;5.53;;;3.20;;
48751;SDS011;34544;48.836;9.174;2022-07-29T08:50:10;2.70;;;2.42;;
48751;SDS011;34544;48.836;9.174;2022-07-29T08:52:37;3.05;;;2.63;;
48751;SDS011;34544;48.836;9.174;2022-07-29T08:55:05;3.33;;;2.75;;
48751;SDS011;34544;48.836;9.174;2022-07-29T08:57:33;12.48;;;3.13;;
48751;SDS011;34544;48.836;9.174;2022-07-29T09:00:03;3.88;;;2.42;;
48751;SDS011;34544;48.836;9.174;2022-07-29T09:02:33;3.17;;;2.63;;
48751;SDS011;34544;48.836;9.174;2022-07-29T09:05:04;3.47;;;2.80;;
48751;SDS011;34544;48.836;9.174;2022-07-29T09:07:30;4.35;;;2.97;;
48751;SDS011;34544;48.836;9.174;2022-07-29T09:09:57;9.15;;;2.72;;
48751;SDS011;34544;48.836;9.174;2022-07-29T09:12:23;5.45;;;3.17;;
48751;SDS011;34544;48.836;9.174;2022-07-29T09:14:50;3.50;;;2.50;;
48751;SDS011;34544;48.836;9.174;2022-07-29T09:17:15;6.60;;;2.47;;
48751;SDS011;34544;48.836;9.174;2022-07-29T09:19:42;3.47;;;2.90;;
48751;SDS011;34544;48.836;9.174;2022-07-29T09:22:09;6.50;;;3.13;;
48751;SDS011;34544;48.836;9.174;2022-07-29T09:24:37;6.22;;;3.10;;
48751;SDS011;34544;48.836;9.174;2022-07-29T09:27:08;4.43;;;2.90;;
48751;SDS011;34544;48.836;9.174;2022-07-29T09:29:45;3.78;;;2.78;;
48751;SDS011;34544;48.836;9.174;2022-07-29T09:32:11;4.25;;;3.10;;
48751;SDS011;34544;48.836;9.174;2022-07-29T09:34:37;5.00;;;2.95;;
48751;SDS011;34544;48.836;9.174;2022-07-29T09:37:03;2.75;;;2.55;;
48751;SDS011;34544;48.836;9.174;2022-07-29T09:41:57;2.65;;;2.45;;
48751;SDS011;34544;48.836;9.174;2022-07-29T09:44:24;3.92;;;2.53;;
48751;SDS011;34544;48.836;9.174;2022-07-29T09:47:00;8.52;;;2.70;;
48751;SDS011;34544;48.836;9.174;2022-07-29T09:49:49;7.18;;;3.70;;
48751;SDS011;34544;48.836;9.174;2022-07-29T09:52:25;5.25;;;2.97;;
48751;SDS011;34544;48.836;9.174;2022-07-29T09:54:52;3.95;;;2.97;;
48751;SDS011;34544;48.836;9.174;2022-07-29T09:57:32;4.68;;;2.83;;
48751;SDS011;34544;48.836;9.174;2022-07-29T10:00:06;3.33;;;3.00;;
48751;SDS011;34544;48.836;9.174;2022-07-29T10:02:39;4.25;;;2.55;;
48751;SDS011;34544;48.836;9.174;2022-07-29T10:05:16;5.45;;;2.85;;
48751;SDS011;34544;48.836;9.174;2022-07-29T10:07:53;3.35;;;3.00;;
48751;SDS011;34544;48.836;9.174;2022-07-29T10:10:21;5.95;;;2.97;;
48751;SDS011;34544;48.836;9.174;2022-07-29T10:12:48;7.18;;;3.10;;
48751;SDS011;34544;48.836;9.174;2022-07-29T10:15:19;3.53;;;3.03;;
48751;SDS011;34544;48.836;9.174;2022-07-29T10:17:47;3.10;;;2.80;;
48751;SDS011;34544;48.836;9.174;2022-07-29T10:20:13;6.80;;;3.95;;
48751;SDS011;34544;48.836;9.174;2022-07-29T10:22:40;4.55;;;3.15;;
48751;SDS011;34544;48.836;9.174;2022-07-29T10:25:07;5.32;;;3.30;;
48751;SDS011;34544;48.836;9.174;2022-07-29T10:27:34;5.13;;;3.47;;
48751;SDS011;34544;48.836;9.174;2022-07-29T10:30:00;5.50;;;3.13;;
48751;SDS011;34544;48.836;9.174;2022-07-29T10:32:33;3.30;;;3.00;;
48751;SDS011;34544;48.836;9.174;2022-07-29T10:38:39;7.68;;;3.63;;
48751;SDS011;34544;48.836;9.174;2022-07-29T10:44:03;8.45;;;3.25;;
48751;SDS011;34544;48.836;9.174;2022-07-29T10:46:37;9.07;;;4.25;;
48751;SDS011;34544;48.836;9.174;2022-07-29T10:59:44;5.47;;;3.50;;
48751;SDS011;34544;48.836;9.174;2022-07-29T11:05:08;6.78;;;4.35;;
48751;SDS011;34544;48.836;9.174;2022-07-29T11:07:39;5.70;;;3.70;;
48751;SDS011;34544;48.836;9.174;2022-07-29T11:10:24;4.72;;;3.92;;
48751;SDS011;34544;48.836;9.174;2022-07-29T11:12:50;9.05;;;4.57;;
48751;SDS011;34544;48.836;9.174;2022-07-29T11:15:17;6.07;;;3.55;;
48751;SDS011;34544;48.836;9.174;2022-07-29T11:26:30;4.43;;;3.90;;
48751;SDS011;34544;48.836;9.174;2022-07-29T11:28:32;7.75;;;4.25;;
48751;SDS011;34544;48.836;9.174;2022-07-29T11:31:00;6.75;;;4.35;;
48751;SDS011;34544;48.836;9.174;2022-07-29T11:33:31;9.95;;;5.30;;
48751;SDS011;34544;48.836;9.174;2022-07-29T11:36:11;9.50;;;5.20;;
48751;SDS011;34544;48.836;9.174;2022-07-29T11:38:39;8.43;;;5.70;;
48751;SDS011;34544;48.836;9.174;2022-07-29T11:41:21;8.05;;;5.07;;
48751;SDS011;34544;48.836;9.174;2022-07-29T11:43:55;8.73;;;6.05;;
48751;SDS011;34544;48.836;9.174;2022-07-29T11:49:06;8.07;;;5.40;;
48751;SDS011;34544;48.836;9.174;2022-07-29T11:51:34;6.57;;;5.30;;
48751;SDS011;34544;48.836;9.174;2022-07-29T11:54:03;6.45;;;5.50;;
48751;SDS011;34544;48.836;9.174;2022-07-29T11:56:33;5.82;;;4.65;;
48751;SDS011;34544;48.836;9.174;2022-07-29T11:59:04;8.93;;;5.85;;
48751;SDS011;34544;48.836;9.174;2022-07-29T12:01:31;9.07;;;4.63;;
48751;SDS011;34544;48.836;9.174;2022-07-29T12:04:04;9.27;;;5.13;;
48751;SDS011;34544;48.836;9.174;2022-07-29T12:06:31;5.95;;;4.53;;
48751;SDS011;34544;48.836;9.174;2022-07-29T12:09:00;6.70;;;4.97;;
48751;SDS011;34544;48.836;9.174;2022-07-29T12:11:31;5.35;;;4.68;;
48751;SDS011;34544;48.836;9.174;2022-07-29T12:13:57;7.45;;;4.95;;
48751;SDS011;34544;48.836;9.174;2022-07-29T12:16:22;11.32;;;5.05;;
48751;SDS011;34544;48.836;9.174;2022-07-29T12:18:59;5.57;;;4.53;;
48751;SDS011;34544;48.836;9.174;2022-07-29T12:21:26;7.35;;;5.53;;
48751;SDS011;34544;48.836;9.174;2022-07-29T12:23:52;6.70;;;5.18;;
48751;SDS011;34544;48.836;9.174;2022-07-29T12:26:21;8.15;;;5.22;;
48751;SDS011;34544;48.836;9.174;2022-07-29T12:28:47;9.82;;;5.75;;
48751;SDS011;34544;48.836;9.174;2022-07-29T12:31:13;7.97;;;5.43;;
48751;SDS011;34544;48.836;9.174;2022-07-29T12:33:40;8.25;;;4.75;;
48751;SDS011;34544;48.836;9.174;2022-07-29T12:36:06;10.57;;;4.60;;
48751;SDS011;34544;48.836;9.174;2022-07-29T12:38:33;8.80;;;5.25;;
48751;SDS011;34544;48.836;9.174;2022-07-29T12:41:02;7.32;;;5.18;;
48751;SDS011;34544;48.836;9.174;2022-07-29T12:43:29;7.38;;;5.18;;
48751;SDS011;34544;48.836;9.174;2022-07-29T12:45:55;7.63;;;5.05;;
48751;SDS011;34544;48.836;9.174;2022-07-29T12:48:34;8.18;;;4.75;;
48751;SDS011;34544;48.836;9.174;2022-07-29T12:51:02;11.50;;;4.90;;
48751;SDS011;34544;48.836;9.174;2022-07-29T12:53:29;8.05;;;4.28;;
48751;SDS011;34544;48.836;9.174;2022-07-29T12:55:55;7.18;;;4.93;;
48751;SDS011;34544;48.836;9.174;2022-07-29T12:58:41;9.32;;;4.65;;
48751;SDS011;34544;48.836;9.174;2022-07-29T13:01:10;9.10;;;5.65;;
48751;SDS011;34544;48.836;9.174;2022-07-29T13:03:50;8.95;;;3.95;;
48751;SDS011;34544;48.836;9.174;2022-07-29T13:06:32;7.38;;;3.92;;
48751;SDS011;34544;48.836;9.174;2022-07-29T13:09:19;3.95;;;3.50;;
48751;SDS011;34544;48.836;9.174;2022-07-29T13:11:50;4.05;;;3.60;;
48751;SDS011;34544;48.836;9.174;2022-07-29T13:17:01;3.85;;;2.88;;
48751;SDS011;34544;48.836;9.174;2022-07-29T13:19:36;4.38;;;3.33;;
48751;SDS011;34544;48.836;9.174;2022-07-29T13:22:07;3.17;;;2.58;;
48751;SDS011;34544;48.836;9.174;2022-07-29T13:24:47;6.18;;;3.72;;
48751;SDS011;34544;48.836;9.174;2022-07-29T13:27:17;7.07;;;3.58;;
48751;SDS011;34544;48.836;9.174;2022-07-29T13:29:44;3.50;;;3.20;;
48751;SDS011;34544;48.836;9.174;2022-07-29T13:32:10;6.60;;;4.00;;
48751;SDS011;34544;48.836;9.174;2022-07-29T13:34:36;4.53;;;2.83;;
48751;SDS011;34544;48.836;9.174;2022-07-29T13:37:02;5.47;;;3.20;;
48751;SDS011;34544;48.836;9.174;2022-07-29T13:39:28;10.20;;;3.88;;
48751;SDS011;34544;48.836;9.174;2022-07-29T13:41:54;7.78;;;3.92;;
48751;SDS011;34544;48.836;9.174;2022-07-29T13:44:20;5.72;;;3.22;;
48751;SDS011;34544;48.836;9.174;2022-07-29T13:46:45;4.97;;;3.25;;
48751;SDS011;34544;48.836;9.174;2022-07-29T13:49:11;3.30;;;3.00;;
48751;SDS011;34544;48.836;9.174;2022-07-29T13:51:37;4.63;;;3.50;;
48751;SDS011;34544;48.836;9.174;2022-07-29T13:54:03;4.85;;;3.40;;
48751;SDS011;34544;48.836;9.174;2022-07-29T13:56:29;5.07;;;3.53;;
48751;SDS011;34544;48.836;9.174;2022-07-29T13:58:55;6.22;;;3.60;;
48751;SDS011;34544;48.836;9.174;2022-07-29T14:01:20;4.30;;;3.45;;
48751;SDS011;34544;48.836;9.174;2022-07-29T14:03:46;5.22;;;3.92;;
48751;SDS011;34544;48.836;9.174;2022-07-29T14:06:12;4.97;;;3.30;;
48751;SDS011;34544;48.836;9.174;2022-07-29T14:08:38;5.57;;;3.60;;
48751;SDS011;34544;48.836;9.174;2022-07-29T14:11:04;4.90;;;3.38;;
48751;SDS011;34544;48.836;9.174;2022-07-29T14:13:30;3.85;;;3.53;;
48751;SDS011;34544;48.836;9.174;2022-07-29T14:15:56;7.70;;;4.05;;
48751;SDS011;34544;48.836;9.174;2022-07-29T14:18:22;7.95;;;3.65;;
48751;SDS011;34544;48.836;9.174;2022-07-29T14:20:47;4.70;;;4.03;;
48751;SDS011;34544;48.836;9.174;2022-07-29T14:23:13;6.47;;;4.38;;
48751;SDS011;34544;48.836;9.174;2022-07-29T14:25:39;6.03;;;4.30;;
48751;SDS011;34544;48.836;9.174;2022-07-29T14:28:04;5.60;;;3.58;;
48751;SDS011;34544;48.836;9.174;2022-07-29T14:30:30;6.70;;;4.13;;
48751;SDS011;34544;48.836;9.174;2022-07-29T14:32:56;3.83;;;3.00;;
48751;SDS011;34544;48.836;9.174;2022-07-29T14:35:21;8.38;;;4.30;;
48751;SDS011;34544;48.836;9.174;2022-07-29T14:37:47;3.90;;;3.28;;
48751;SDS011;34544;48.836;9.174;2022-07-29T14:40:12;4.68;;;3.67;;
48751;SDS011;34544;48.836;9.174;2022-07-29T14:42:38;7.57;;;3.90;;
48751;SDS011;34544;48.836;9.174;2022-07-29T14:45:05;6.03;;;3.38;;
48751;SDS011;34544;48.836;9.174;2022-07-29T14:47:32;4.93;;;3.70;;
48751;SDS011;34544;48.836;9.174;2022-07-29T14:49:57;5.22;;;4.30;;
48751;SDS011;34544;48.836;9.174;2022-07-29T14:52:23;7.53;;;3.97;;
48751;SDS011;34544;48.836;9.174;2022-07-29T14:54:49;8.00;;;4.22;;
48751;SDS011;34544;48.836;9.174;2022-07-29T14:57:14;5.57;;;4.18;;
48751;SDS011;34544;48.836;9.174;2022-07-29T14:59:40;4.80;;;4.10;;
48751;SDS011;34544;48.836;9.174;2022-07-29T15:02:06;7.85;;;4.35;;
48751;SDS011;34544;48.836;9.174;2022-07-29T15:04:31;5.00;;;4.38;;
48751;SDS011;34544;48.836;9.174;2022-07-29T15:06:57;4.53;;;3.90;;
48751;SDS011;34544;48.836;9.174;2022-07-29T15:09:23;4.65;;;4.25;;
48751;SDS011;34544;48.836;9.174;2022-07-29T15:11:48;6.82;;;4.57;;
48751;SDS011;34544;48.836;9.174;2022-07-29T15:14:14;4.60;;;3.97;;
48751;SDS011;34544;48.836;9.174;2022-07-29T15:16:40;6.45;;;4.30;;
48751;SDS011;34544;48.836;9.174;2022-07-29T15:19:07;9.75;;;4.63;;
48751;SDS011;34544;48.836;9.174;2022-07-29T15:21:36;7.75;;;3.03;;
48751;SDS011;34544;48.836;9.174;2022-07-29T15:24:02;4.18;;;3.42;;
48751;SDS011;34544;48.836;9.174;2022-07-29T15:26:31;6.93;;;3.90;;
48751;SDS011;34544;48.836;9.174;2022-07-29T15:28:56;10.75;;;4.75;;
48751;SDS011;34544;48.836;9.174;2022-07-29T15:31:22;6.65;;;4.60;;
48751;SDS011;34544;48.836;9.174;2022-07-29T15:33:48;5.57;;;4.43;;
48751;SDS011;34544;48.836;9.174;2022-07-29T15:36:14;4.38;;;3.97;;
48751;SDS011;34544;48.836;9.174;2022-07-29T15:38:40;7.03;;;4.45;;
48751;SDS011;34544;48.836;9.174;2022-07-29T15:41:06;7.00;;;3.88;;
48751;SDS011;34544;48.836;9.174;2022-07-29T15:43:32;5.70;;;4.00;;
48751;SDS011;34544;48.836;9.174;2022-07-29T15:46:00;6.35;;;4.50;;
48751;SDS011;34544;48.836;9.174;2022-07-29T15:48:44;5.38;;;3.55;;